createdAt,value
2019-01-22T00:01:12.512Z,46.75
2019-01-22T00:03:43.065Z,42.58
2019-01-22T00:06:13.373Z,45.83
2019-01-22T00:08:43.665Z,47.08
2019-01-22T00:11:13.709Z,41.50
2019-01-22T00:13:44.287Z,35.60
2019-01-22T00:16:14.398Z,39.08
2019-01-22T00:18:44.415Z,42.75
2019-01-22T00:21:14.829Z,49.08
2019-01-22T00:23:46.150Z,33.98
2019-01-22T00:26:16.195Z,44.53
2019-01-22T00:28:46.580Z,40.33
2019-01-22T00:31:16.684Z,57.83
2019-01-22T00:33:46.784Z,44.23
2019-01-22T00:36:17.466Z,31.07
2019-01-22T00:38:47.868Z,44.20
2019-01-22T00:41:17.930Z,43.98
2019-01-22T00:43:48.564Z,46.83
2019-01-22T00:46:18.641Z,53.10
2019-01-22T00:48:49.372Z,55.58
2019-01-22T00:51:19.669Z,45.70
2019-01-22T00:53:50.388Z,46.60
2019-01-22T00:56:20.433Z,39.75
2019-01-22T00:58:50.774Z,42.00
2019-01-22T01:01:21.150Z,43.42
2019-01-22T01:03:51.566Z,47.60
2019-01-22T01:06:21.696Z,49.60
2019-01-22T01:08:51.860Z,44.38
2019-01-22T01:11:21.909Z,39.30
2019-01-22T01:13:52.229Z,50.23
2019-01-22T01:16:22.553Z,53.52
2019-01-22T01:18:52.659Z,57.50
2019-01-22T01:21:22.852Z,62.00
2019-01-22T01:23:53.633Z,43.95
2019-01-22T01:26:23.749Z,50.88
2019-01-22T01:28:54.173Z,62.33
2019-01-22T01:31:24.232Z,43.55
2019-01-22T01:33:55.025Z,43.40
2019-01-22T01:36:25.359Z,45.23
2019-01-22T01:38:55.460Z,53.95
2019-01-22T01:41:25.864Z,47.20
2019-01-22T01:43:56.156Z,53.65
2019-01-22T01:46:26.488Z,48.55
2019-01-22T01:48:56.572Z,49.15
2019-01-22T01:51:26.619Z,53.20
2019-01-22T01:53:57.165Z,55.28
2019-01-22T01:56:27.204Z,45.67
2019-01-22T01:58:57.503Z,48.25
2019-01-22T02:01:28.288Z,40.80
2019-01-22T02:03:58.368Z,44.48
2019-01-22T02:06:28.555Z,51.40
2019-01-22T02:08:58.733Z,46.95
2019-01-22T02:11:28.791Z,38.95
2019-01-22T02:13:59.705Z,59.20
2019-01-22T02:16:36.063Z,43.50
2019-01-22T02:19:13.973Z,45.12
2019-01-22T02:22:32.680Z,49.33
2019-01-22T02:25:34.737Z,46.08
2019-01-22T02:28:21.393Z,45.48
2019-01-22T02:31:19.888Z,43.42
2019-01-22T02:33:55.970Z,44.20
2019-01-22T02:36:54.989Z,56.80
2019-01-22T02:39:42.631Z,52.17
2019-01-22T02:42:33.828Z,51.10
2019-01-22T02:45:30.301Z,44.63
2019-01-22T02:48:17.240Z,49.73
2019-01-22T02:51:16.222Z,44.50
2019-01-22T02:54:10.748Z,49.90
2019-01-22T02:57:31.848Z,36.53
2019-01-22T03:00:37.769Z,48.98
2019-01-22T03:03:50.755Z,55.65
2019-01-22T03:06:57.249Z,44.08
2019-01-22T03:09:56.645Z,42.98
2019-01-22T03:12:37.016Z,52.10
2019-01-22T03:15:34.400Z,55.75
2019-01-22T03:18:20.497Z,45.70
2019-01-22T03:21:06.201Z,46.68
2019-01-22T03:24:12.639Z,47.00
2019-01-22T03:27:21.553Z,47.17
2019-01-22T03:30:39.180Z,38.50
2019-01-22T03:33:24.187Z,47.98
2019-01-22T03:36:17.631Z,40.05
2019-01-22T03:39:20.467Z,46.92
2019-01-22T03:42:16.316Z,47.43
2019-01-22T03:45:32.209Z,53.58
2019-01-22T03:48:22.059Z,39.30
2019-01-22T03:51:25.968Z,45.12
2019-01-22T03:54:37.739Z,59.27
2019-01-22T03:57:14.217Z,47.53
2019-01-22T03:59:44.737Z,48.65
2019-01-22T04:02:15.075Z,48.50
2019-01-22T04:04:45.118Z,53.30
2019-01-22T04:07:15.223Z,42.83
2019-01-22T04:09:50.004Z,47.33
2019-01-22T04:12:20.167Z,55.00
2019-01-22T04:14:50.705Z,49.80
2019-01-22T04:17:21.218Z,52.40
2019-01-22T04:19:51.557Z,51.60
2019-01-22T04:22:41.332Z,48.00
2019-01-22T04:25:51.488Z,53.75
2019-01-22T04:28:58.990Z,43.08
2019-01-22T04:31:45.939Z,51.40
2019-01-22T04:34:38.553Z,50.17
2019-01-22T04:37:32.567Z,43.63
2019-01-22T04:40:50.025Z,57.73
2019-01-22T04:43:46.084Z,51.85
2019-01-22T04:46:31.362Z,49.98
2019-01-22T04:49:24.260Z,46.13
2019-01-22T04:52:23.987Z,46.42
2019-01-22T04:55:23.789Z,53.05
2019-01-22T04:58:22.853Z,55.73
2019-01-22T05:01:37.137Z,49.58
2019-01-22T05:04:28.829Z,45.35
2019-01-22T05:07:15.534Z,57.48
2019-01-22T05:10:08.353Z,55.25
2019-01-22T05:13:06.802Z,56.80
2019-01-22T05:16:02.627Z,58.63
2019-01-22T05:19:05.596Z,57.70
2019-01-22T05:21:47.552Z,62.15
2019-01-22T05:25:29.029Z,55.48
2019-01-22T05:28:15.794Z,54.50
2019-01-22T05:30:51.453Z,49.77
2019-01-22T05:33:51.957Z,51.95
2019-01-22T05:37:12.452Z,51.73
2019-01-22T05:39:56.265Z,61.23
2019-01-22T05:42:57.252Z,64.15
2019-01-22T05:46:00.394Z,58.78
2019-01-22T05:49:06.736Z,45.45
2019-01-22T05:52:02.577Z,41.08
2019-01-22T05:54:53.012Z,52.85
2019-01-22T05:57:55.728Z,55.80
2019-01-22T06:01:02.265Z,52.15
2019-01-22T06:03:54.033Z,51.70
2019-01-22T06:06:54.763Z,51.85
2019-01-22T06:09:47.656Z,52.45
2019-01-22T06:12:44.317Z,53.33
2019-01-22T06:15:29.608Z,54.83
2019-01-22T06:18:32.405Z,48.73
2019-01-22T06:21:13.949Z,52.48
2019-01-22T06:24:08.389Z,46.58
2019-01-22T06:27:00.817Z,59.30
2019-01-22T06:30:10.770Z,55.05
2019-01-22T06:33:02.408Z,51.68
2019-01-22T06:36:07.634Z,46.23
2019-01-22T06:39:02.250Z,60.20
2019-01-22T06:42:07.385Z,47.30
2019-01-22T06:45:03.046Z,47.60
2019-01-22T06:47:47.428Z,48.83
2019-01-22T06:50:43.721Z,62.65
2019-01-22T06:53:45.844Z,51.63
2019-01-22T06:56:48.681Z,59.58
2019-01-22T07:00:17.915Z,51.88
2019-01-22T07:03:23.836Z,55.33
2019-01-22T07:06:09.693Z,42.70
2019-01-22T07:09:18.205Z,54.58
2019-01-22T07:12:11.109Z,52.00
2019-01-22T07:15:38.276Z,43.23
2019-01-22T07:18:31.668Z,48.87
2019-01-22T07:21:28.032Z,50.52
2019-01-22T07:24:22.612Z,52.08
2019-01-22T07:27:14.313Z,53.55
2019-01-22T07:30:16.296Z,59.00
2019-01-22T07:32:59.990Z,60.75
2019-01-22T07:35:44.830Z,56.60
2019-01-22T07:38:30.636Z,47.60
2019-01-22T07:41:18.072Z,51.08
2019-01-22T07:44:14.015Z,49.60
2019-01-22T07:47:04.861Z,50.25
2019-01-22T07:50:15.012Z,52.55
2019-01-22T07:53:25.052Z,49.13
2019-01-22T07:56:39.148Z,52.80
2019-01-22T07:59:27.301Z,53.00
2019-01-22T08:02:09.565Z,49.63
2019-01-22T08:05:12.633Z,43.73
2019-01-22T08:08:36.866Z,49.88
2019-01-22T08:11:28.597Z,44.93
2019-01-22T08:14:44.757Z,62.55
2019-01-22T08:17:38.271Z,52.00
2019-01-22T08:20:57.904Z,50.50
2019-01-22T08:23:58.372Z,51.88
2019-01-22T08:27:20.901Z,52.00
2019-01-22T08:29:56.716Z,49.35
2019-01-22T08:32:51.652Z,50.38
2019-01-22T08:35:47.050Z,59.45
2019-01-22T08:38:53.842Z,52.53
2019-01-22T08:41:55.721Z,45.08
2019-01-22T08:45:01.951Z,54.65
2019-01-22T08:48:00.329Z,44.73
2019-01-22T08:51:07.832Z,48.10
2019-01-22T08:54:10.232Z,55.55
2019-01-22T08:57:12.489Z,46.65
2019-01-22T09:00:01.367Z,45.33
2019-01-22T09:03:15.876Z,48.78
2019-01-22T09:06:24.351Z,51.85
2019-01-22T09:09:34.897Z,55.17
2019-01-22T09:12:22.806Z,47.75
2019-01-22T09:15:05.137Z,53.08
2019-01-22T09:17:51.713Z,50.98
2019-01-22T09:20:31.648Z,54.25
2019-01-22T09:23:58.249Z,53.55
2019-01-22T09:26:54.315Z,45.78
2019-01-22T09:29:53.293Z,46.08
2019-01-22T09:33:00.820Z,39.15
2019-01-22T09:35:43.605Z,45.25
2019-01-22T09:38:14.021Z,41.15
2019-01-22T09:40:44.336Z,54.08
2019-01-22T09:43:14.971Z,45.80
2019-01-22T09:45:45.471Z,43.55
2019-01-22T09:48:16.332Z,42.27
2019-01-22T09:50:46.844Z,41.77
2019-01-22T09:53:17.128Z,46.02
2019-01-22T09:55:47.440Z,39.50
2019-01-22T09:58:17.798Z,45.92
2019-01-22T10:00:47.848Z,46.73
2019-01-22T10:03:17.969Z,45.78
2019-01-22T10:05:47.988Z,45.60
2019-01-22T10:08:18.081Z,44.13
2019-01-22T10:10:48.602Z,54.98
2019-01-22T10:13:19.015Z,45.45
2019-01-22T10:15:49.060Z,40.03
2019-01-22T10:18:19.228Z,42.27
2019-01-22T10:20:49.379Z,36.85
2019-01-22T10:23:19.504Z,40.85
2019-01-22T10:25:49.607Z,40.65
2019-01-22T10:28:19.663Z,41.25
2019-01-22T10:30:50.040Z,41.95
2019-01-22T10:33:20.329Z,45.70
2019-01-22T10:35:51.061Z,48.60
2019-01-22T10:38:21.110Z,43.15
2019-01-22T10:40:51.192Z,37.90
2019-01-22T10:43:21.525Z,42.80
2019-01-22T10:45:51.943Z,41.55
2019-01-22T10:48:22.002Z,34.95
2019-01-22T10:50:52.393Z,38.65
2019-01-22T10:53:22.448Z,35.17
2019-01-22T10:55:52.880Z,38.78
2019-01-22T10:58:22.930Z,32.13
2019-01-22T11:00:54.115Z,41.55
2019-01-22T11:03:24.565Z,36.20
2019-01-22T11:05:55.000Z,44.45
2019-01-22T11:08:25.053Z,39.40
2019-01-22T11:10:55.500Z,41.95
2019-01-22T11:13:25.553Z,44.25
2019-01-22T11:15:56.144Z,43.23
2019-01-22T11:18:26.197Z,39.53
2019-01-22T11:20:56.356Z,48.80
2019-01-22T11:23:27.462Z,46.18
2019-01-22T11:25:57.571Z,37.73
2019-01-22T11:28:27.841Z,39.35
2019-01-22T11:30:57.929Z,34.88
2019-01-22T11:33:28.450Z,31.62
2019-01-22T11:35:59.258Z,36.08
2019-01-22T11:38:29.548Z,31.12
2019-01-22T11:40:59.681Z,31.52
2019-01-22T11:43:30.061Z,29.10
2019-01-22T11:46:00.150Z,29.63
2019-01-22T11:48:30.563Z,30.57
2019-01-22T11:51:00.841Z,37.00
2019-01-22T11:53:30.943Z,33.75
2019-01-22T11:56:01.544Z,29.98
2019-01-22T11:58:31.868Z,28.67
2019-01-22T12:01:02.470Z,30.65
2019-01-22T12:03:32.828Z,29.40
2019-01-22T12:06:02.929Z,32.48
2019-01-22T12:08:32.987Z,31.55
2019-01-22T12:11:03.149Z,31.73
2019-01-22T12:13:33.336Z,33.23
2019-01-22T12:16:03.649Z,32.25
2019-01-22T12:18:33.744Z,37.13
2019-01-22T12:21:05.396Z,27.50
2019-01-22T12:23:35.924Z,30.30
2019-01-22T12:26:06.305Z,25.00
2019-01-22T12:28:37.385Z,27.40
2019-01-22T12:31:07.873Z,22.55
2019-01-22T12:33:38.143Z,24.82
2019-01-22T12:36:08.547Z,24.18
2019-01-22T12:38:38.811Z,32.05
2019-01-22T12:41:08.916Z,26.45
2019-01-22T12:43:38.956Z,30.37
2019-01-22T12:46:09.069Z,24.47
2019-01-22T12:48:39.163Z,29.32
2019-01-22T12:51:09.852Z,28.07
2019-01-22T12:53:39.900Z,23.90
2019-01-22T12:56:10.246Z,27.42
2019-01-22T12:58:40.573Z,29.65
2019-01-22T13:01:12.576Z,37.73
2019-01-22T13:03:42.607Z,28.02
2019-01-22T13:06:12.771Z,23.95
2019-01-22T13:08:43.557Z,30.23
2019-01-22T13:11:13.720Z,28.02
2019-01-22T13:13:43.991Z,28.67
2019-01-22T13:16:14.582Z,27.67
2019-01-22T13:18:44.701Z,21.07
2019-01-22T13:21:15.192Z,23.45
2019-01-22T13:23:45.531Z,25.05
2019-01-22T13:26:15.985Z,28.17
2019-01-22T13:28:46.025Z,26.50
2019-01-22T13:31:16.733Z,28.25
2019-01-22T13:33:46.768Z,29.07
2019-01-22T13:36:17.072Z,25.97
2019-01-22T13:38:47.420Z,30.72
2019-01-22T13:41:17.464Z,29.40
2019-01-22T13:43:47.849Z,26.23
2019-01-22T13:46:18.548Z,30.00
2019-01-22T13:48:48.601Z,29.35
2019-01-22T13:51:18.940Z,30.88
2019-01-22T13:53:48.973Z,28.10
2019-01-22T13:56:19.037Z,29.65
2019-01-22T13:58:49.492Z,29.75
2019-01-22T14:01:19.529Z,32.67
2019-01-22T14:03:50.835Z,32.55
2019-01-22T14:06:20.883Z,30.48
2019-01-22T14:08:50.915Z,27.35
2019-01-22T14:11:21.011Z,23.98
2019-01-22T14:13:51.643Z,25.92
2019-01-22T14:16:21.728Z,31.00
2019-01-22T14:18:52.289Z,26.68
2019-01-22T14:21:22.912Z,24.90
2019-01-22T14:23:52.965Z,25.88
2019-01-22T14:26:25.657Z,25.32
2019-01-22T14:28:55.448Z,38.80
2019-01-22T14:31:25.801Z,22.60
2019-01-22T14:33:55.903Z,26.80
2019-01-22T14:36:26.223Z,23.73
2019-01-22T14:38:56.255Z,28.65
2019-01-22T14:41:26.598Z,24.72
2019-01-22T14:43:56.620Z,28.95
2019-01-22T14:46:26.700Z,30.88
2019-01-22T14:48:56.955Z,27.98
2019-01-22T14:51:27.040Z,29.40
2019-01-22T14:53:57.296Z,31.82
2019-01-22T14:56:32.451Z,38.40
2019-01-22T14:58:59.104Z,50.80
2019-01-22T15:01:29.416Z,36.70
2019-01-22T15:03:59.449Z,35.40
2019-01-22T15:06:29.945Z,34.75
2019-01-22T15:09:00.301Z,38.70
2019-01-22T15:11:30.394Z,40.15
2019-01-22T15:14:00.960Z,41.98
2019-01-22T15:16:31.052Z,34.38
2019-01-22T15:19:01.309Z,36.25
2019-01-22T15:21:31.552Z,40.50
2019-01-22T15:24:01.945Z,39.63
2019-01-22T15:26:32.317Z,51.88
2019-01-22T15:29:02.940Z,34.27
2019-01-22T15:31:33.248Z,44.42
2019-01-22T15:34:03.544Z,49.13
2019-01-22T15:36:33.680Z,44.73
2019-01-22T15:39:05.532Z,46.05
2019-01-22T15:41:37.013Z,41.33
2019-01-22T15:44:07.081Z,44.73
2019-01-22T15:46:37.525Z,40.98
2019-01-22T15:49:07.800Z,39.33
2019-01-22T15:51:38.216Z,40.45
2019-01-22T15:54:08.397Z,39.10
2019-01-22T15:56:38.568Z,37.80
2019-01-22T15:59:08.685Z,44.83
2019-01-22T16:01:39.032Z,38.73
2019-01-22T16:04:09.390Z,40.88
2019-01-22T16:06:39.729Z,49.93
2019-01-22T16:09:10.126Z,43.90
2019-01-22T16:11:40.225Z,43.50
2019-01-22T16:14:10.561Z,37.55
2019-01-22T16:16:40.652Z,39.63
2019-01-22T16:19:11.128Z,46.33
2019-01-22T16:21:42.468Z,47.50
2019-01-22T16:24:12.828Z,42.10
2019-01-22T16:26:43.108Z,39.63
2019-01-22T16:29:13.763Z,43.90
2019-01-22T16:31:43.825Z,39.75
2019-01-22T16:34:14.157Z,42.62
2019-01-22T16:36:44.704Z,34.65
2019-01-22T16:39:15.265Z,47.55
2019-01-22T16:41:45.318Z,37.23
2019-01-22T16:44:16.413Z,40.08
2019-01-22T16:46:46.785Z,45.28
2019-01-22T16:49:16.902Z,43.70
2019-01-22T16:51:47.596Z,43.73
2019-01-22T16:54:17.682Z,38.73
2019-01-22T16:56:47.951Z,41.83
2019-01-22T16:59:18.204Z,43.42
2019-01-22T17:01:48.501Z,49.95
2019-01-22T17:04:18.588Z,35.63
2019-01-22T17:06:48.624Z,42.65
2019-01-22T17:09:18.725Z,40.03
2019-01-22T17:11:48.845Z,52.83
2019-01-22T17:14:19.194Z,44.80
2019-01-22T17:16:49.285Z,36.40
2019-01-22T17:19:19.630Z,42.05
2019-01-22T17:21:51.252Z,42.83
2019-01-22T17:24:21.579Z,36.95
2019-01-22T17:26:51.713Z,39.05
2019-01-22T17:29:22.361Z,38.05
2019-01-22T17:32:04.338Z,32.28
2019-01-22T17:34:47.266Z,35.58
2019-01-22T17:37:17.356Z,43.87
2019-01-22T17:39:47.513Z,42.90
2019-01-22T17:42:17.564Z,39.10
2019-01-22T17:44:47.917Z,36.17
2019-01-22T17:47:18.175Z,36.55
2019-01-22T17:49:48.908Z,40.60
2019-01-22T17:52:18.949Z,41.63
2019-01-22T17:54:49.045Z,44.42
2019-01-22T17:57:19.454Z,49.23
2019-01-22T17:59:49.816Z,35.65
2019-01-22T18:02:22.021Z,37.48
2019-01-22T18:04:52.345Z,32.53
2019-01-22T18:07:22.615Z,35.20
2019-01-22T18:09:52.949Z,44.13
2019-01-22T18:12:23.884Z,40.20
2019-01-22T18:14:55.255Z,44.35
2019-01-22T18:17:25.556Z,45.85
2019-01-22T18:19:55.652Z,40.38
2019-01-22T18:22:26.217Z,40.43
2019-01-22T18:24:56.313Z,39.65
2019-01-22T18:27:26.761Z,38.80
2019-01-22T18:29:57.386Z,42.83
2019-01-22T18:32:27.477Z,39.42
2019-01-22T18:34:58.248Z,44.00
2019-01-22T18:37:28.664Z,44.42
2019-01-22T18:39:59.093Z,48.60
2019-01-22T18:42:29.533Z,41.45
2019-01-22T18:44:59.945Z,47.08
2019-01-22T18:47:30.424Z,56.15
2019-01-22T18:50:00.900Z,47.15
2019-01-22T18:52:31.184Z,43.55
2019-01-22T18:55:01.383Z,50.80
2019-01-22T18:57:32.385Z,43.87
2019-01-22T19:00:02.996Z,48.52
2019-01-22T19:02:33.196Z,50.75
2019-01-22T19:05:03.360Z,58.45
2019-01-22T19:07:34.564Z,48.15
2019-01-22T19:10:07.542Z,48.00
2019-01-22T19:12:57.962Z,55.48
2019-01-22T19:15:39.712Z,44.30
2019-01-22T19:18:21.836Z,50.08
2019-01-22T19:21:03.853Z,53.98
2019-01-22T19:23:46.617Z,53.90
2019-01-22T19:26:29.801Z,55.58
2019-01-22T19:29:12.280Z,52.15
2019-01-22T19:31:54.920Z,55.58
2019-01-22T19:34:37.393Z,58.85
2019-01-22T19:37:20.248Z,54.77
2019-01-22T19:40:02.846Z,52.50
2019-01-22T19:42:45.240Z,55.40
2019-01-22T19:45:27.541Z,56.33
2019-01-22T19:48:09.750Z,47.98
2019-01-22T19:50:51.666Z,59.23
2019-01-22T19:53:34.250Z,61.05
2019-01-22T19:56:16.831Z,60.03
2019-01-22T19:58:59.423Z,56.25
2019-01-22T20:01:41.550Z,59.80
2019-01-22T20:04:23.777Z,55.90
2019-01-22T20:07:06.500Z,60.08
2019-01-22T20:09:50.424Z,63.13
2019-01-22T20:12:33.161Z,72.17
2019-01-22T20:15:15.939Z,67.75
2019-01-22T20:17:58.281Z,77.53
2019-01-22T20:20:41.045Z,63.55
2019-01-22T20:23:22.771Z,69.72
2019-01-22T20:26:05.500Z,80.35
2019-01-22T20:28:48.033Z,63.02
2019-01-22T20:31:30.545Z,68.72
2019-01-22T20:34:13.387Z,68.30
2019-01-22T20:36:55.363Z,69.92
2019-01-22T20:39:37.089Z,67.67
2019-01-22T20:42:19.564Z,77.95
2019-01-22T20:45:01.345Z,74.10
2019-01-22T20:47:43.369Z,73.12
2019-01-22T20:50:25.609Z,70.40
2019-01-22T20:53:07.841Z,70.28
2019-01-22T20:55:50.297Z,57.50
2019-01-22T20:58:32.996Z,71.67
2019-01-22T21:01:15.132Z,74.62
2019-01-22T21:03:57.777Z,74.80
2019-01-22T21:06:40.238Z,60.38
2019-01-22T21:09:22.828Z,69.07
2019-01-22T21:12:05.365Z,74.65
2019-01-22T21:14:47.624Z,68.52
2019-01-22T21:17:29.624Z,54.05
2019-01-22T21:20:11.773Z,82.42
2019-01-22T21:22:54.639Z,72.32
2019-01-22T21:25:36.364Z,82.42
2019-01-22T21:28:18.305Z,67.75
2019-01-22T21:31:00.701Z,67.62
2019-01-22T21:33:42.902Z,83.00
2019-01-22T21:36:25.517Z,71.02
2019-01-22T21:39:08.290Z,86.63
2019-01-22T21:41:50.001Z,80.70
2019-01-22T21:44:32.544Z,71.72
2019-01-22T21:47:14.817Z,63.63
2019-01-22T21:49:55.961Z,75.00
2019-01-22T21:52:45.616Z,74.55
2019-01-22T21:55:28.265Z,78.65
2019-01-22T21:58:08.971Z,73.02
2019-01-22T22:00:58.677Z,84.17
2019-01-22T22:03:41.133Z,70.42
2019-01-22T22:06:23.741Z,84.20
2019-01-22T22:09:06.157Z,74.55
2019-01-22T22:11:48.385Z,61.23
2019-01-22T22:14:31.704Z,71.42
2019-01-22T22:17:13.688Z,70.12
2019-01-22T22:19:55.903Z,77.47
2019-01-22T22:22:38.118Z,75.87
2019-01-22T22:25:19.852Z,80.42
2019-01-22T22:28:02.773Z,71.15
2019-01-22T22:30:44.845Z,51.42
2019-01-22T22:33:27.612Z,74.70
2019-01-22T22:36:09.769Z,63.85
2019-01-22T22:38:51.921Z,52.03
2019-01-22T22:41:34.189Z,71.15
2019-01-22T22:44:17.230Z,66.47
2019-01-22T22:46:59.240Z,71.33
2019-01-22T22:49:41.937Z,72.47
2019-01-22T22:52:23.668Z,74.90
2019-01-22T22:55:05.400Z,69.00
2019-01-22T22:57:47.431Z,62.95
2019-01-22T23:00:31.050Z,63.42
2019-01-22T23:03:14.892Z,66.17
2019-01-22T23:05:57.672Z,65.62
2019-01-22T23:08:39.413Z,58.63
2019-01-22T23:11:22.331Z,76.67
2019-01-22T23:14:04.133Z,50.63
2019-01-22T23:16:46.776Z,68.42
2019-01-22T23:19:28.447Z,72.12
2019-01-22T23:22:10.761Z,71.37
2019-01-22T23:24:52.697Z,69.32
2019-01-22T23:27:35.169Z,70.08
2019-01-22T23:30:17.845Z,65.62
2019-01-22T23:32:58.673Z,88.97
2019-01-22T23:35:48.377Z,77.32
2019-01-22T23:38:30.234Z,75.87
2019-01-22T23:41:12.233Z,79.25
2019-01-22T23:43:54.765Z,87.10
2019-01-22T23:46:36.559Z,54.85
2019-01-22T23:49:19.368Z,66.85
2019-01-22T23:52:02.377Z,50.92
2019-01-22T23:54:44.293Z,53.75
2019-01-22T23:57:26.672Z,85.70
